sensor_id;sensor_type;location;lat;lon;timestamp;P1;durP1;ratioP1;P2;durP2;ratioP2
52035;SDS011;38046;49.448;32.074;2022-12-10T00:01:30;11.70;;;9.40;;
52035;SDS011;38046;49.448;32.074;2022-12-10T00:03:57;12.88;;;9.95;;
52035;SDS011;38046;49.448;32.074;2022-12-10T00:06:24;11.77;;;9.82;;
52035;SDS011;38046;49.448;32.074;2022-12-10T00:08:55;15.43;;;10.13;;
52035;SDS011;38046;49.448;32.074;2022-12-10T00:11:21;13.23;;;9.43;;
52035;SDS011;38046;49.448;32.074;2022-12-10T00:13:49;14.48;;;10.25;;
52035;SDS011;38046;49.448;32.074;2022-12-10T00:16:16;13.10;;;10.05;;
52035;SDS011;38046;49.448;32.074;2022-12-10T00:18:44;16.67;;;10.80;;
52035;SDS011;38046;49.448;32.074;2022-12-10T00:21:14;14.30;;;9.93;;
52035;SDS011;38046;49.448;32.074;2022-12-10T00:23:42;16.08;;;10.48;;
52035;SDS011;38046;49.448;32.074;2022-12-10T00:26:29;16.02;;;10.02;;
52035;SDS011;38046;49.448;32.074;2022-12-10T00:28:57;12.05;;;7.82;;
52035;SDS011;38046;49.448;32.074;2022-12-10T00:31:26;13.25;;;8.20;;
52035;SDS011;38046;49.448;32.074;2022-12-10T00:33:58;12.82;;;8.35;;
52035;SDS011;38046;49.448;32.074;2022-12-10T00:36:30;11.18;;;7.70;;
52035;SDS011;38046;49.448;32.074;2022-12-10T00:38:58;12.80;;;8.13;;
52035;SDS011;38046;49.448;32.074;2022-12-10T00:41:24;13.13;;;8.45;;
52035;SDS011;38046;49.448;32.074;2022-12-10T00:43:50;13.38;;;8.50;;
52035;SDS011;38046;49.448;32.074;2022-12-10T00:46:17;12.95;;;8.02;;
52035;SDS011;38046;49.448;32.074;2022-12-10T00:48:43;16.10;;;9.50;;
52035;SDS011;38046;49.448;32.074;2022-12-10T00:51:14;14.68;;;10.00;;
52035;SDS011;38046;49.448;32.074;2022-12-10T00:53:48;17.83;;;10.88;;
52035;SDS011;38046;49.448;32.074;2022-12-10T00:56:17;18.75;;;11.02;;
52035;SDS011;38046;49.448;32.074;2022-12-10T00:58:44;19.23;;;11.75;;
52035;SDS011;38046;49.448;32.074;2022-12-10T01:01:31;15.88;;;11.02;;
52035;SDS011;38046;49.448;32.074;2022-12-10T01:04:03;22.25;;;10.88;;
52035;SDS011;38046;49.448;32.074;2022-12-10T01:06:33;16.73;;;9.90;;
52035;SDS011;38046;49.448;32.074;2022-12-10T01:09:08;13.88;;;8.52;;
52035;SDS011;38046;49.448;32.074;2022-12-10T01:11:37;16.98;;;9.05;;
52035;SDS011;38046;49.448;32.074;2022-12-10T01:14:05;11.35;;;7.00;;
52035;SDS011;38046;49.448;32.074;2022-12-10T01:16:32;13.95;;;8.20;;
52035;SDS011;38046;49.448;32.074;2022-12-10T01:18:58;11.45;;;7.43;;
52035;SDS011;38046;49.448;32.074;2022-12-10T01:21:25;10.32;;;7.15;;
52035;SDS011;38046;49.448;32.074;2022-12-10T01:23:52;10.40;;;6.95;;
52035;SDS011;38046;49.448;32.074;2022-12-10T01:26:20;9.88;;;6.53;;
52035;SDS011;38046;49.448;32.074;2022-12-10T01:28:48;9.77;;;6.25;;
52035;SDS011;38046;49.448;32.074;2022-12-10T01:33:45;9.75;;;6.50;;
52035;SDS011;38046;49.448;32.074;2022-12-10T01:36:12;9.32;;;6.47;;
52035;SDS011;38046;49.448;32.074;2022-12-10T01:38:46;9.27;;;6.45;;
52035;SDS011;38046;49.448;32.074;2022-12-10T01:41:13;8.85;;;5.93;;
52035;SDS011;38046;49.448;32.074;2022-12-10T01:44:00;8.82;;;5.80;;
52035;SDS011;38046;49.448;32.074;2022-12-10T01:46:27;8.90;;;6.32;;
52035;SDS011;38046;49.448;32.074;2022-12-10T01:48:55;12.00;;;6.78;;
52035;SDS011;38046;49.448;32.074;2022-12-10T01:51:23;9.57;;;5.80;;
52035;SDS011;38046;49.448;32.074;2022-12-10T01:53:50;9.63;;;6.80;;
52035;SDS011;38046;49.448;32.074;2022-12-10T01:56:17;9.15;;;5.82;;
52035;SDS011;38046;49.448;32.074;2022-12-10T01:58:44;10.10;;;6.03;;
52035;SDS011;38046;49.448;32.074;2022-12-10T02:07:06;6.78;;;4.60;;
52035;SDS011;38046;49.448;32.074;2022-12-10T02:09:48;7.68;;;5.40;;
52035;SDS011;38046;49.448;32.074;2022-12-10T02:15:04;7.38;;;4.80;;
52035;SDS011;38046;49.448;32.074;2022-12-10T02:17:53;7.57;;;5.03;;
52035;SDS011;38046;49.448;32.074;2022-12-10T02:23:01;6.82;;;4.75;;
52035;SDS011;38046;49.448;32.074;2022-12-10T02:31:01;6.78;;;5.80;;
52035;SDS011;38046;49.448;32.074;2022-12-10T02:33:28;6.57;;;5.05;;
52035;SDS011;38046;49.448;32.074;2022-12-10T02:35:56;6.80;;;4.80;;
52035;SDS011;38046;49.448;32.074;2022-12-10T02:38:26;6.32;;;4.72;;
52035;SDS011;38046;49.448;32.074;2022-12-10T02:40:56;6.22;;;4.70;;
52035;SDS011;38046;49.448;32.074;2022-12-10T02:43:24;5.70;;;4.25;;
52035;SDS011;38046;49.448;32.074;2022-12-10T02:45:52;4.20;;;3.60;;
52035;SDS011;38046;49.448;32.074;2022-12-10T02:48:20;7.78;;;4.60;;
52035;SDS011;38046;49.448;32.074;2022-12-10T02:50:46;6.72;;;4.70;;
52035;SDS011;38046;49.448;32.074;2022-12-10T02:53:11;7.80;;;4.75;;
52035;SDS011;38046;49.448;32.074;2022-12-10T03:03:43;5.35;;;4.40;;
52035;SDS011;38046;49.448;32.074;2022-12-10T03:06:20;4.63;;;3.83;;
52035;SDS011;38046;49.448;32.074;2022-12-10T03:08:51;5.03;;;3.78;;
52035;SDS011;38046;49.448;32.074;2022-12-10T03:11:24;5.43;;;3.75;;
52035;SDS011;38046;49.448;32.074;2022-12-10T03:13:55;6.30;;;4.18;;
52035;SDS011;38046;49.448;32.074;2022-12-10T03:16:41;5.55;;;3.75;;
52035;SDS011;38046;49.448;32.074;2022-12-10T03:19:13;4.57;;;3.72;;
52035;SDS011;38046;49.448;32.074;2022-12-10T03:21:43;5.05;;;3.97;;
52035;SDS011;38046;49.448;32.074;2022-12-10T03:24:11;5.55;;;4.05;;
52035;SDS011;38046;49.448;32.074;2022-12-10T03:26:38;4.53;;;3.60;;
52035;SDS011;38046;49.448;32.074;2022-12-10T03:29:07;5.35;;;3.92;;
52035;SDS011;38046;49.448;32.074;2022-12-10T03:31:35;4.50;;;3.58;;
52035;SDS011;38046;49.448;32.074;2022-12-10T03:34:04;4.97;;;3.78;;
52035;SDS011;38046;49.448;32.074;2022-12-10T03:36:31;4.35;;;3.80;;
52035;SDS011;38046;49.448;32.074;2022-12-10T03:38:57;4.20;;;3.28;;
52035;SDS011;38046;49.448;32.074;2022-12-10T03:41:24;4.47;;;3.35;;
52035;SDS011;38046;49.448;32.074;2022-12-10T03:43:56;4.68;;;3.65;;
52035;SDS011;38046;49.448;32.074;2022-12-10T03:46:24;4.95;;;3.85;;
52035;SDS011;38046;49.448;32.074;2022-12-10T03:48:52;4.60;;;3.60;;
52035;SDS011;38046;49.448;32.074;2022-12-10T03:51:18;5.47;;;3.95;;
52035;SDS011;38046;49.448;32.074;2022-12-10T03:53:45;5.05;;;3.85;;
52035;SDS011;38046;49.448;32.074;2022-12-10T03:56:11;5.22;;;3.88;;
52035;SDS011;38046;49.448;32.074;2022-12-10T03:58:36;5.70;;;4.20;;
52035;SDS011;38046;49.448;32.074;2022-12-10T04:01:03;4.88;;;3.80;;
52035;SDS011;38046;49.448;32.074;2022-12-10T04:04:51;5.03;;;3.80;;
52035;SDS011;38046;49.448;32.074;2022-12-10T04:07:17;5.60;;;4.20;;
52035;SDS011;38046;49.448;32.074;2022-12-10T04:09:43;4.80;;;3.72;;
52035;SDS011;38046;49.448;32.074;2022-12-10T04:12:09;5.68;;;4.55;;
52035;SDS011;38046;49.448;32.074;2022-12-10T04:14:35;5.45;;;4.20;;
52035;SDS011;38046;49.448;32.074;2022-12-10T04:17:21;6.10;;;4.15;;
52035;SDS011;38046;49.448;32.074;2022-12-10T04:19:47;5.53;;;4.22;;
52035;SDS011;38046;49.448;32.074;2022-12-10T04:22:13;5.75;;;4.28;;
52035;SDS011;38046;49.448;32.074;2022-12-10T04:24:58;6.88;;;4.55;;
52035;SDS011;38046;49.448;32.074;2022-12-10T04:27:42;5.55;;;4.18;;
52035;SDS011;38046;49.448;32.074;2022-12-10T04:30:11;4.70;;;3.53;;
52035;SDS011;38046;49.448;32.074;2022-12-10T04:32:37;5.97;;;4.15;;
52035;SDS011;38046;49.448;32.074;2022-12-10T04:35:03;5.88;;;4.05;;
52035;SDS011;38046;49.448;32.074;2022-12-10T04:37:30;5.28;;;4.00;;
52035;SDS011;38046;49.448;32.074;2022-12-10T04:39:58;6.53;;;4.20;;
52035;SDS011;38046;49.448;32.074;2022-12-10T04:42:26;6.07;;;4.38;;
52035;SDS011;38046;49.448;32.074;2022-12-10T04:44:52;7.78;;;5.25;;
52035;SDS011;38046;49.448;32.074;2022-12-10T04:47:21;9.85;;;5.35;;
52035;SDS011;38046;49.448;32.074;2022-12-10T04:49:54;5.75;;;4.22;;
52035;SDS011;38046;49.448;32.074;2022-12-10T04:52:20;7.43;;;4.82;;
52035;SDS011;38046;49.448;32.074;2022-12-10T04:54:46;6.25;;;4.68;;
52035;SDS011;38046;49.448;32.074;2022-12-10T04:57:12;10.02;;;6.45;;
52035;SDS011;38046;49.448;32.074;2022-12-10T04:59:39;11.75;;;6.88;;
52035;SDS011;38046;49.448;32.074;2022-12-10T05:02:05;10.40;;;7.55;;
52035;SDS011;38046;49.448;32.074;2022-12-10T05:04:31;10.23;;;6.38;;
52035;SDS011;38046;49.448;32.074;2022-12-10T05:07:00;10.88;;;6.78;;
52035;SDS011;38046;49.448;32.074;2022-12-10T05:09:26;7.75;;;5.47;;
52035;SDS011;38046;49.448;32.074;2022-12-10T05:11:52;9.13;;;6.25;;
52035;SDS011;38046;49.448;32.074;2022-12-10T05:14:18;7.78;;;5.88;;
52035;SDS011;38046;49.448;32.074;2022-12-10T05:16:44;7.90;;;5.90;;
52035;SDS011;38046;49.448;32.074;2022-12-10T05:19:09;7.05;;;5.18;;
52035;SDS011;38046;49.448;32.074;2022-12-10T05:21:36;7.47;;;4.85;;
52035;SDS011;38046;49.448;32.074;2022-12-10T05:24:28;7.55;;;5.28;;
52035;SDS011;38046;49.448;32.074;2022-12-10T05:26:54;7.63;;;5.55;;
52035;SDS011;38046;49.448;32.074;2022-12-10T05:29:21;8.30;;;5.97;;
52035;SDS011;38046;49.448;32.074;2022-12-10T05:31:47;9.32;;;6.20;;
52035;SDS011;38046;49.448;32.074;2022-12-10T05:34:13;7.72;;;5.80;;
52035;SDS011;38046;49.448;32.074;2022-12-10T05:36:39;8.10;;;6.18;;
52035;SDS011;38046;49.448;32.074;2022-12-10T05:39:05;8.10;;;5.68;;
52035;SDS011;38046;49.448;32.074;2022-12-10T05:41:34;6.55;;;5.28;;
52035;SDS011;38046;49.448;32.074;2022-12-10T05:44:01;6.80;;;5.45;;
52035;SDS011;38046;49.448;32.074;2022-12-10T05:46:28;8.05;;;6.07;;
52035;SDS011;38046;49.448;32.074;2022-12-10T05:48:56;8.07;;;5.63;;
52035;SDS011;38046;49.448;32.074;2022-12-10T05:51:23;8.80;;;6.40;;
52035;SDS011;38046;49.448;32.074;2022-12-10T05:53:51;8.75;;;6.43;;
52035;SDS011;38046;49.448;32.074;2022-12-10T05:56:20;9.88;;;6.80;;
52035;SDS011;38046;49.448;32.074;2022-12-10T05:58:48;9.35;;;6.38;;
52035;SDS011;38046;49.448;32.074;2022-12-10T06:01:17;7.82;;;5.78;;
52035;SDS011;38046;49.448;32.074;2022-12-10T06:03:44;8.57;;;6.07;;
52035;SDS011;38046;49.448;32.074;2022-12-10T06:06:10;7.82;;;5.80;;
52035;SDS011;38046;49.448;32.074;2022-12-10T06:08:37;7.28;;;5.88;;
52035;SDS011;38046;49.448;32.074;2022-12-10T06:11:04;6.85;;;5.20;;
52035;SDS011;38046;49.448;32.074;2022-12-10T06:13:31;7.63;;;4.90;;
52035;SDS011;38046;49.448;32.074;2022-12-10T06:16:03;10.25;;;6.32;;
52035;SDS011;38046;49.448;32.074;2022-12-10T06:18:30;6.43;;;5.00;;
52035;SDS011;38046;49.448;32.074;2022-12-10T06:20:56;6.78;;;4.80;;
52035;SDS011;38046;49.448;32.074;2022-12-10T06:23:22;7.85;;;5.63;;
52035;SDS011;38046;49.448;32.074;2022-12-10T06:25:48;6.38;;;5.13;;
52035;SDS011;38046;49.448;32.074;2022-12-10T06:28:14;6.43;;;4.80;;
52035;SDS011;38046;49.448;32.074;2022-12-10T06:30:40;5.40;;;4.63;;
52035;SDS011;38046;49.448;32.074;2022-12-10T06:33:05;7.85;;;5.10;;
52035;SDS011;38046;49.448;32.074;2022-12-10T06:35:31;7.40;;;5.35;;
52035;SDS011;38046;49.448;32.074;2022-12-10T06:37:57;5.90;;;4.65;;
52035;SDS011;38046;49.448;32.074;2022-12-10T06:40:23;6.90;;;4.95;;
52035;SDS011;38046;49.448;32.074;2022-12-10T06:42:52;6.43;;;5.28;;
52035;SDS011;38046;49.448;32.074;2022-12-10T06:45:18;6.60;;;4.70;;
52035;SDS011;38046;49.448;32.074;2022-12-10T06:47:43;6.45;;;5.20;;
52035;SDS011;38046;49.448;32.074;2022-12-10T06:50:09;7.65;;;6.13;;
52035;SDS011;38046;49.448;32.074;2022-12-10T06:52:35;7.43;;;5.70;;
52035;SDS011;38046;49.448;32.074;2022-12-10T06:55:01;7.32;;;5.55;;
52035;SDS011;38046;49.448;32.074;2022-12-10T06:57:27;6.85;;;5.25;;
52035;SDS011;38046;49.448;32.074;2022-12-10T06:59:53;7.18;;;5.63;;
52035;SDS011;38046;49.448;32.074;2022-12-10T07:02:19;9.27;;;6.22;;
52035;SDS011;38046;49.448;32.074;2022-12-10T07:04:44;8.65;;;5.97;;
52035;SDS011;38046;49.448;32.074;2022-12-10T07:07:10;7.43;;;5.57;;
52035;SDS011;38046;49.448;32.074;2022-12-10T07:09:36;6.85;;;5.53;;
52035;SDS011;38046;49.448;32.074;2022-12-10T07:12:02;6.18;;;5.00;;
52035;SDS011;38046;49.448;32.074;2022-12-10T07:14:28;6.10;;;4.88;;
52035;SDS011;38046;49.448;32.074;2022-12-10T07:16:54;6.30;;;4.78;;
52035;SDS011;38046;49.448;32.074;2022-12-10T07:19:20;4.90;;;4.40;;
52035;SDS011;38046;49.448;32.074;2022-12-10T07:21:45;5.38;;;4.50;;
52035;SDS011;38046;49.448;32.074;2022-12-10T07:24:12;7.65;;;5.05;;
52035;SDS011;38046;49.448;32.074;2022-12-10T07:26:42;6.68;;;5.15;;
52035;SDS011;38046;49.448;32.074;2022-12-10T07:29:12;7.10;;;4.75;;
52035;SDS011;38046;49.448;32.074;2022-12-10T07:31:39;6.03;;;5.05;;
52035;SDS011;38046;49.448;32.074;2022-12-10T07:34:05;5.07;;;4.03;;
52035;SDS011;38046;49.448;32.074;2022-12-10T07:36:31;5.40;;;4.30;;
52035;SDS011;38046;49.448;32.074;2022-12-10T07:38:57;5.55;;;4.45;;
52035;SDS011;38046;49.448;32.074;2022-12-10T07:41:23;6.07;;;4.72;;
52035;SDS011;38046;49.448;32.074;2022-12-10T07:43:49;6.53;;;5.45;;
52035;SDS011;38046;49.448;32.074;2022-12-10T07:46:17;8.85;;;6.13;;
52035;SDS011;38046;49.448;32.074;2022-12-10T07:49:02;9.20;;;6.45;;
52035;SDS011;38046;49.448;32.074;2022-12-10T07:51:28;7.47;;;5.63;;
52035;SDS011;38046;49.448;32.074;2022-12-10T07:53:55;7.50;;;5.50;;
52035;SDS011;38046;49.448;32.074;2022-12-10T07:56:21;8.43;;;5.35;;
52035;SDS011;38046;49.448;32.074;2022-12-10T07:58:48;6.68;;;4.78;;
52035;SDS011;38046;49.448;32.074;2022-12-10T08:01:15;5.65;;;4.50;;
52035;SDS011;38046;49.448;32.074;2022-12-10T08:03:43;4.53;;;4.00;;
52035;SDS011;38046;49.448;32.074;2022-12-10T08:06:10;4.40;;;3.90;;
52035;SDS011;38046;49.448;32.074;2022-12-10T08:08:38;4.45;;;3.90;;
52035;SDS011;38046;49.448;32.074;2022-12-10T08:11:05;6.65;;;4.07;;
52035;SDS011;38046;49.448;32.074;2022-12-10T08:13:32;6.43;;;4.82;;
52035;SDS011;38046;49.448;32.074;2022-12-10T08:16:05;6.88;;;5.10;;
52035;SDS011;38046;49.448;32.074;2022-12-10T08:18:33;6.43;;;4.90;;
52035;SDS011;38046;49.448;32.074;2022-12-10T08:21:06;6.72;;;5.32;;
52035;SDS011;38046;49.448;32.074;2022-12-10T08:23:33;7.30;;;5.47;;
52035;SDS011;38046;49.448;32.074;2022-12-10T08:26:01;6.90;;;5.55;;
52035;SDS011;38046;49.448;32.074;2022-12-10T08:28:31;8.23;;;6.28;;
52035;SDS011;38046;49.448;32.074;2022-12-10T08:30:57;9.25;;;5.88;;
52035;SDS011;38046;49.448;32.074;2022-12-10T08:33:23;7.03;;;5.13;;
52035;SDS011;38046;49.448;32.074;2022-12-10T08:35:48;7.53;;;5.25;;
52035;SDS011;38046;49.448;32.074;2022-12-10T08:38:14;6.90;;;5.68;;
52035;SDS011;38046;49.448;32.074;2022-12-10T08:40:40;8.77;;;6.55;;
52035;SDS011;38046;49.448;32.074;2022-12-10T08:43:06;7.93;;;6.70;;
52035;SDS011;38046;49.448;32.074;2022-12-10T08:45:32;8.77;;;6.60;;
52035;SDS011;38046;49.448;32.074;2022-12-10T08:47:58;8.00;;;6.47;;
52035;SDS011;38046;49.448;32.074;2022-12-10T08:50:23;8.00;;;5.60;;
52035;SDS011;38046;49.448;32.074;2022-12-10T08:52:49;7.10;;;5.50;;
52035;SDS011;38046;49.448;32.074;2022-12-10T08:55:14;8.32;;;6.18;;
52035;SDS011;38046;49.448;32.074;2022-12-10T08:57:40;8.30;;;5.95;;
52035;SDS011;38046;49.448;32.074;2022-12-10T09:00:06;10.63;;;7.38;;
52035;SDS011;38046;49.448;32.074;2022-12-10T09:02:32;10.48;;;6.85;;
52035;SDS011;38046;49.448;32.074;2022-12-10T09:04:58;11.15;;;7.70;;
52035;SDS011;38046;49.448;32.074;2022-12-10T09:07:23;9.80;;;7.13;;
52035;SDS011;38046;49.448;32.074;2022-12-10T09:09:49;12.18;;;7.57;;
52035;SDS011;38046;49.448;32.074;2022-12-10T09:12:15;11.18;;;7.07;;
52035;SDS011;38046;49.448;32.074;2022-12-10T09:14:40;13.23;;;8.00;;
52035;SDS011;38046;49.448;32.074;2022-12-10T09:17:07;13.68;;;8.27;;
52035;SDS011;38046;49.448;32.074;2022-12-10T09:19:33;13.02;;;8.32;;
52035;SDS011;38046;49.448;32.074;2022-12-10T09:21:59;10.85;;;7.95;;
52035;SDS011;38046;49.448;32.074;2022-12-10T09:24:25;11.27;;;7.82;;
52035;SDS011;38046;49.448;32.074;2022-12-10T09:26:50;12.02;;;7.93;;
52035;SDS011;38046;49.448;32.074;2022-12-10T09:29:16;12.80;;;7.80;;
52035;SDS011;38046;49.448;32.074;2022-12-10T09:31:42;15.30;;;8.25;;
52035;SDS011;38046;49.448;32.074;2022-12-10T09:34:08;16.13;;;9.05;;
52035;SDS011;38046;49.448;32.074;2022-12-10T09:36:33;14.52;;;8.95;;
52035;SDS011;38046;49.448;32.074;2022-12-10T09:38:59;15.07;;;9.35;;
52035;SDS011;38046;49.448;32.074;2022-12-10T09:41:33;15.63;;;8.45;;
52035;SDS011;38046;49.448;32.074;2022-12-10T09:44:31;12.30;;;8.30;;
52035;SDS011;38046;49.448;32.074;2022-12-10T09:47:08;13.27;;;8.25;;
52035;SDS011;38046;49.448;32.074;2022-12-10T09:52:35;13.18;;;8.15;;
52035;SDS011;38046;49.448;32.074;2022-12-10T09:55:05;11.48;;;7.80;;
52035;SDS011;38046;49.448;32.074;2022-12-10T09:57:47;11.02;;;7.18;;
52035;SDS011;38046;49.448;32.074;2022-12-10T10:00:20;12.20;;;7.78;;
52035;SDS011;38046;49.448;32.074;2022-12-10T10:03:00;16.00;;;8.27;;
52035;SDS011;38046;49.448;32.074;2022-12-10T10:05:28;17.25;;;8.13;;
52035;SDS011;38046;49.448;32.074;2022-12-10T10:08:02;12.63;;;8.30;;
52035;SDS011;38046;49.448;32.074;2022-12-10T10:10:37;14.90;;;8.70;;
52035;SDS011;38046;49.448;32.074;2022-12-10T10:15:39;9.90;;;7.10;;
52035;SDS011;38046;49.448;32.074;2022-12-10T10:20:39;11.20;;;7.75;;
52035;SDS011;38046;49.448;32.074;2022-12-10T10:23:05;12.50;;;7.68;;
52035;SDS011;38046;49.448;32.074;2022-12-10T10:25:31;10.55;;;7.53;;
52035;SDS011;38046;49.448;32.074;2022-12-10T10:27:57;12.82;;;7.82;;
52035;SDS011;38046;49.448;32.074;2022-12-10T10:30:23;9.55;;;6.13;;
52035;SDS011;38046;49.448;32.074;2022-12-10T10:32:56;9.82;;;7.05;;
52035;SDS011;38046;49.448;32.074;2022-12-10T10:35:31;11.07;;;6.90;;
52035;SDS011;38046;49.448;32.074;2022-12-10T10:38:07;13.48;;;7.65;;
52035;SDS011;38046;49.448;32.074;2022-12-10T10:40:41;11.43;;;7.35;;
52035;SDS011;38046;49.448;32.074;2022-12-10T10:43:31;11.55;;;7.20;;
52035;SDS011;38046;49.448;32.074;2022-12-10T10:48:32;13.45;;;7.65;;
52035;SDS011;38046;49.448;32.074;2022-12-10T10:53:44;11.48;;;7.72;;
52035;SDS011;38046;49.448;32.074;2022-12-10T10:56:13;11.05;;;7.20;;
52035;SDS011;38046;49.448;32.074;2022-12-10T10:58:56;12.60;;;7.28;;
52035;SDS011;38046;49.448;32.074;2022-12-10T11:01:23;9.85;;;6.68;;
52035;SDS011;38046;49.448;32.074;2022-12-10T11:03:57;14.35;;;7.78;;
52035;SDS011;38046;49.448;32.074;2022-12-10T11:06:24;10.65;;;7.03;;
52035;SDS011;38046;49.448;32.074;2022-12-10T11:08:51;7.55;;;5.72;;
52035;SDS011;38046;49.448;32.074;2022-12-10T11:11:25;8.38;;;6.25;;
52035;SDS011;38046;49.448;32.074;2022-12-10T11:14:12;9.68;;;6.32;;
52035;SDS011;38046;49.448;32.074;2022-12-10T11:16:40;13.77;;;7.80;;
52035;SDS011;38046;49.448;32.074;2022-12-10T11:19:16;11.70;;;7.18;;
52035;SDS011;38046;49.448;32.074;2022-12-10T11:21:46;10.73;;;7.03;;
52035;SDS011;38046;49.448;32.074;2022-12-10T11:24:12;10.55;;;7.05;;
52035;SDS011;38046;49.448;32.074;2022-12-10T11:54:00;11.70;;;6.75;;
52035;SDS011;38046;49.448;32.074;2022-12-10T11:56:37;7.82;;;5.97;;
52035;SDS011;38046;49.448;32.074;2022-12-10T11:59:28;8.52;;;6.07;;
52035;SDS011;38046;49.448;32.074;2022-12-10T12:07:41;12.18;;;7.70;;
52035;SDS011;38046;49.448;32.074;2022-12-10T12:15:33;11.93;;;7.65;;
52035;SDS011;38046;49.448;32.074;2022-12-10T12:18:23;10.52;;;6.88;;
52035;SDS011;38046;49.448;32.074;2022-12-10T12:20:58;11.60;;;6.72;;
52035;SDS011;38046;49.448;32.074;2022-12-10T12:26:08;10.13;;;7.07;;
52035;SDS011;38046;49.448;32.074;2022-12-10T12:31:26;11.80;;;7.57;;
52035;SDS011;38046;49.448;32.074;2022-12-10T12:33:59;10.25;;;7.40;;
52035;SDS011;38046;49.448;32.074;2022-12-10T12:44:33;14.77;;;9.38;;
52035;SDS011;38046;49.448;32.074;2022-12-10T12:47:32;15.85;;;10.20;;
52035;SDS011;38046;49.448;32.074;2022-12-10T12:50:10;15.85;;;10.07;;
52035;SDS011;38046;49.448;32.074;2022-12-10T12:52:57;13.57;;;9.60;;
52035;SDS011;38046;49.448;32.074;2022-12-10T12:58:20;14.98;;;9.55;;
52035;SDS011;38046;49.448;32.074;2022-12-10T13:00:54;14.02;;;8.55;;
52035;SDS011;38046;49.448;32.074;2022-12-10T13:03:34;17.20;;;10.27;;
52035;SDS011;38046;49.448;32.074;2022-12-10T13:11:45;23.23;;;12.93;;
52035;SDS011;38046;49.448;32.074;2022-12-10T13:14:34;20.83;;;11.25;;
52035;SDS011;38046;49.448;32.074;2022-12-10T13:17:27;22.25;;;12.00;;
52035;SDS011;38046;49.448;32.074;2022-12-10T13:19:53;13.73;;;9.52;;
52035;SDS011;38046;49.448;32.074;2022-12-10T13:22:40;19.38;;;10.40;;
52035;SDS011;38046;49.448;32.074;2022-12-10T13:27:36;24.33;;;10.27;;
52035;SDS011;38046;49.448;32.074;2022-12-10T13:37:35;12.88;;;8.02;;
52035;SDS011;38046;49.448;32.074;2022-12-10T13:46:30;9.88;;;7.47;;
52035;SDS011;38046;49.448;32.074;2022-12-10T13:49:12;10.47;;;6.73;;
52035;SDS011;38046;49.448;32.074;2022-12-10T13:51:54;11.95;;;7.05;;
52035;SDS011;38046;49.448;32.074;2022-12-10T13:54:44;9.50;;;5.63;;
52035;SDS011;38046;49.448;32.074;2022-12-10T14:06:39;7.15;;;4.97;;
52035;SDS011;38046;49.448;32.074;2022-12-10T14:09:19;7.10;;;4.88;;
52035;SDS011;38046;49.448;32.074;2022-12-10T14:11:55;6.32;;;4.68;;
52035;SDS011;38046;49.448;32.074;2022-12-10T14:14:29;8.45;;;5.18;;
52035;SDS011;38046;49.448;32.074;2022-12-10T14:17:04;5.82;;;4.38;;
52035;SDS011;38046;49.448;32.074;2022-12-10T14:19:37;6.03;;;4.25;;
52035;SDS011;38046;49.448;32.074;2022-12-10T14:22:04;6.97;;;5.07;;
52035;SDS011;38046;49.448;32.074;2022-12-10T14:24:39;8.43;;;5.07;;
52035;SDS011;38046;49.448;32.074;2022-12-10T14:27:12;7.28;;;5.40;;
52035;SDS011;38046;49.448;32.074;2022-12-10T14:29:46;8.52;;;5.28;;
52035;SDS011;38046;49.448;32.074;2022-12-10T14:32:15;9.13;;;6.00;;
52035;SDS011;38046;49.448;32.074;2022-12-10T14:34:54;9.45;;;5.60;;
52035;SDS011;38046;49.448;32.074;2022-12-10T14:37:27;6.35;;;4.45;;
52035;SDS011;38046;49.448;32.074;2022-12-10T14:39:57;7.95;;;4.53;;
52035;SDS011;38046;49.448;32.074;2022-12-10T14:42:27;7.18;;;4.97;;
52035;SDS011;38046;49.448;32.074;2022-12-10T14:44:59;6.90;;;5.20;;
52035;SDS011;38046;49.448;32.074;2022-12-10T14:47:32;8.63;;;5.00;;
52035;SDS011;38046;49.448;32.074;2022-12-10T14:50:02;7.05;;;4.82;;
52035;SDS011;38046;49.448;32.074;2022-12-10T14:52:32;10.50;;;4.90;;
52035;SDS011;38046;49.448;32.074;2022-12-10T14:55:00;6.22;;;4.18;;
52035;SDS011;38046;49.448;32.074;2022-12-10T14:57:29;6.35;;;4.18;;
52035;SDS011;38046;49.448;32.074;2022-12-10T15:00:18;5.43;;;3.47;;
52035;SDS011;38046;49.448;32.074;2022-12-10T15:02:56;4.80;;;3.85;;
52035;SDS011;38046;49.448;32.074;2022-12-10T15:05:29;8.77;;;5.00;;
52035;SDS011;38046;49.448;32.074;2022-12-10T15:08:06;6.80;;;4.47;;
52035;SDS011;38046;49.448;32.074;2022-12-10T15:10:40;5.97;;;4.18;;
52035;SDS011;38046;49.448;32.074;2022-12-10T15:13:19;6.13;;;4.57;;
52035;SDS011;38046;49.448;32.074;2022-12-10T15:15:58;6.93;;;4.57;;
52035;SDS011;38046;49.448;32.074;2022-12-10T15:18:36;6.93;;;4.57;;
52035;SDS011;38046;49.448;32.074;2022-12-10T15:21:15;6.13;;;4.22;;
52035;SDS011;38046;49.448;32.074;2022-12-10T15:24:07;6.80;;;4.75;;
52035;SDS011;38046;49.448;32.074;2022-12-10T15:26:38;9.15;;;5.07;;
52035;SDS011;38046;49.448;32.074;2022-12-10T15:29:26;8.52;;;5.30;;
52035;SDS011;38046;49.448;32.074;2022-12-10T15:32:00;7.13;;;4.88;;
52035;SDS011;38046;49.448;32.074;2022-12-10T15:34:34;11.73;;;7.97;;
52035;SDS011;38046;49.448;32.074;2022-12-10T15:37:04;11.20;;;7.25;;
52035;SDS011;38046;49.448;32.074;2022-12-10T15:39:31;13.57;;;7.95;;
52035;SDS011;38046;49.448;32.074;2022-12-10T15:42:07;10.85;;;7.13;;
52035;SDS011;38046;49.448;32.074;2022-12-10T15:47:20;9.45;;;5.57;;
52035;SDS011;38046;49.448;32.074;2022-12-10T15:49:48;8.77;;;6.18;;
52035;SDS011;38046;49.448;32.074;2022-12-10T15:52:16;13.55;;;7.75;;
52035;SDS011;38046;49.448;32.074;2022-12-10T15:54:54;12.07;;;7.60;;
52035;SDS011;38046;49.448;32.074;2022-12-10T15:59:50;11.30;;;6.90;;
52035;SDS011;38046;49.448;32.074;2022-12-10T16:04:53;11.32;;;7.40;;
52035;SDS011;38046;49.448;32.074;2022-12-10T16:07:19;9.07;;;6.40;;
52035;SDS011;38046;49.448;32.074;2022-12-10T16:09:46;8.25;;;5.93;;
52035;SDS011;38046;49.448;32.074;2022-12-10T16:12:12;8.27;;;5.70;;
52035;SDS011;38046;49.448;32.074;2022-12-10T16:14:40;7.65;;;5.57;;
52035;SDS011;38046;49.448;32.074;2022-12-10T16:17:12;9.07;;;6.45;;
52035;SDS011;38046;49.448;32.074;2022-12-10T16:19:38;9.20;;;6.18;;
52035;SDS011;38046;49.448;32.074;2022-12-10T16:22:04;7.75;;;5.60;;
52035;SDS011;38046;49.448;32.074;2022-12-10T16:24:30;9.70;;;6.45;;
52035;SDS011;38046;49.448;32.074;2022-12-10T16:26:56;10.32;;;6.38;;
52035;SDS011;38046;49.448;32.074;2022-12-10T16:29:22;7.45;;;5.13;;
52035;SDS011;38046;49.448;32.074;2022-12-10T16:31:48;6.63;;;4.53;;
52035;SDS011;38046;49.448;32.074;2022-12-10T16:34:14;11.18;;;7.18;;
52035;SDS011;38046;49.448;32.074;2022-12-10T16:36:40;12.77;;;8.30;;
52035;SDS011;38046;49.448;32.074;2022-12-10T16:39:06;10.77;;;7.05;;
52035;SDS011;38046;49.448;32.074;2022-12-10T16:41:34;15.05;;;8.38;;
52035;SDS011;38046;49.448;32.074;2022-12-10T16:44:00;12.98;;;8.27;;
52035;SDS011;38046;49.448;32.074;2022-12-10T16:46:26;10.88;;;7.03;;
52035;SDS011;38046;49.448;32.074;2022-12-10T16:48:52;13.43;;;8.65;;
52035;SDS011;38046;49.448;32.074;2022-12-10T16:51:23;10.00;;;7.05;;
52035;SDS011;38046;49.448;32.074;2022-12-10T16:53:53;11.35;;;5.93;;
52035;SDS011;38046;49.448;32.074;2022-12-10T16:56:20;12.02;;;7.60;;
52035;SDS011;38046;49.448;32.074;2022-12-10T16:58:46;9.55;;;6.32;;
52035;SDS011;38046;49.448;32.074;2022-12-10T17:01:16;9.90;;;6.75;;